Aérodrome :
LOGIN :

S'inscrire | Disclaimer

   EN    FR    IT 

 










Légende :    VFR   VFR Marginal   IFR   IFR Intensif   IFR Très Intensif
Visi : 
Plafond : 
>= 8 km
>= 3000ft
5 à 8 km
1000 à 3000 ft
1500m à 5 km
500 à 1000 ft
800 à 1500m
200 à 500 ft
< 800m
< 200 ft
Symboles :   Orages  Brouillard  Fortes neiges  Fortes précipitations  Vent > 20 kt
SIGMETs :   Divers  Orages  Givrage  Turbulence  Onde Orograph.  Cendres Volcan.







- Altitude de l'aérodrome : 1966 ft
- Code IATA : SGE


EDGS - Siegerland

DERNIER METAR :
  • 131820Z 20013KT 170V230 3000 SN BR OVC002 M00/M00 Q0995

METARs EXPIRÉS :
  • 131750Z 20013KT 2500 SN BR OVC002 M00/M00 Q0996
  • 131720Z 21012KT 160V240 3000 -SN BR OVC003 M00/M00 Q0997 RESN
  • 131650Z 21012KT 3000 SN BR OVC003 M00/M00 Q0998
  • 131620Z 21012KT 3000 SN BR OVC003 M00/M00 Q0998
  • 131550Z 21015KT 1200 R13/P2000N SN BR SCT001 BKN003 M00/M00 Q0998

TAF TAF EDGS
Valide du 13 à 18h jusqu'au 14 à 03h UTC


131700Z 1318/1403 21012KT 3500 SN BR OVC003
BECMG 1318/1321 21015G25KT 2000 -SNRA BKN001
TEMPO 1321/1403 22020G35KT 1000 SNRA
Pas de NOTAMs connus pour ce terrain.



MET'MAP, la Météo Aéronautique d'un coup d'oeil ! - Copyright ORBIFLY Décembre 2007 - Disclaimer

ORBIFLY MET'MAP TEAM :

Programmation & Développement : Alexandra Zaïnal
Conception & Développement : Baudouin d'Aumeries
Co-Programmation & Développement : Marc-Olivier Méhu
Soutien technique & logistique : Manuel Goepfert

Contact : metmap@orbifly.com




SOURCES & CREDITS :

   NOAA